Time;durP1;ratioP1;P1;durP2;ratioP2;P2;SDS_P1;SDS_P2;PMS_P1;PMS_P2;Temp;Humidity;BMP_temperature;BMP_pressure;BME280_temperature;BME280_humidity;BME280_pressure;Samples;Min_cycle;Max_cycle;Signal;HPM_P1;HPM_P2
2022/12/08 00:00:24;;;;;;;14.20;7.90;;;2.70;99.90;;;;;;4870510;29;20040;-75
2022/12/08 06:02:44;;;;;;;22.60;10.52;;;-1.10;99.90;;;;;;5360501;23;20122;-75
2022/12/08 06:05:10;;;;;;;19.52;9.77;;;-1.00;99.90;;;;;;4945805;29;20031;-77
2022/12/08 06:07:36;;;;;;;18.85;9.75;;;-1.00;99.90;;;;;;4945635;29;20042;-75
2022/12/08 06:10:02;;;;;;;20.08;9.65;;;-1.10;99.90;;;;;;4933454;29;20087;-75
2022/12/08 06:12:27;;;;;;;17.88;9.13;;;-1.00;99.90;;;;;;4945704;29;20098;-75
2022/12/08 06:14:53;;;;;;;23.33;9.95;;;-1.00;99.90;;;;;;4928695;29;20062;-74
2022/12/08 06:17:19;;;;;;;20.40;10.05;;;-1.00;99.90;;;;;;4945626;29;20428;-75
2022/12/08 06:19:45;;;;;;;22.00;10.80;;;-1.00;99.90;;;;;;4944827;29;20032;-75
2022/12/08 06:22:10;;;;;;;19.90;9.65;;;-0.90;99.90;;;;;;4945599;29;20015;-74
2022/12/08 06:24:36;;;;;;;44.15;23.00;;;-0.90;99.90;;;;;;4928464;29;20055;-74
2022/12/08 06:27:02;;;;;;;25.80;13.88;;;-0.90;99.90;;;;;;4945266;29;20075;-75
2022/12/08 06:29:27;;;;;;;37.83;20.13;;;-1.00;99.90;;;;;;4945305;29;20087;-74
2022/12/08 06:31:56;;;;;;;32.28;16.52;;;-1.00;99.90;;;;;;4945436;29;20027;-75
2022/12/08 06:34:22;;;;;;;25.85;12.32;;;-1.10;99.90;;;;;;4945315;29;20050;-74
2022/12/08 06:36:47;;;;;;;21.58;10.88;;;-1.10;99.90;;;;;;4927557;29;20038;-75
2022/12/08 06:39:13;;;;;;;24.27;11.00;;;-1.10;99.90;;;;;;4928221;29;20220;-75
2022/12/08 06:42:42;;;;;;;22.55;11.00;;;-1.10;99.90;;;;;;4928107;29;20098;-75
2022/12/08 06:44:25;;;;;;;24.77;11.43;;;-1.10;99.90;;;;;;4944989;29;20067;-75
2022/12/08 06:46:50;;;;;;;22.85;10.82;;;-1.20;99.90;;;;;;4944619;29;20071;-74
2022/12/08 06:49:16;;;;;;;18.67;10.05;;;-1.20;99.90;;;;;;4945131;29;20205;-74
2022/12/08 06:51:42;;;;;;;43.10;23.23;;;-1.20;99.90;;;;;;4944823;29;20050;-74
2022/12/08 06:54:07;;;;;;;33.85;19.35;;;-1.20;99.90;;;;;;4945143;29;20254;-74
2022/12/08 06:56:33;;;;;;;25.10;12.82;;;-1.20;99.90;;;;;;4944723;29;20027;-74
2022/12/08 06:58:59;;;;;;;18.60;10.27;;;-1.20;99.90;;;;;;4944540;29;20031;-73
2022/12/08 07:01:24;;;;;;;19.70;9.68;;;-1.20;99.90;;;;;;4944741;29;20031;-73
2022/12/08 07:03:50;;;;;;;22.05;9.75;;;-1.20;99.90;;;;;;4931441;29;20087;-74
2022/12/08 07:06:21;;;;;;;21.38;10.43;;;-1.10;99.90;;;;;;4925955;29;20039;-74
2022/12/08 07:08:47;;;;;;;21.75;10.82;;;-1.10;99.90;;;;;;4925171;29;20042;-74
2022/12/08 07:11:12;;;;;;;23.75;10.95;;;-1.20;99.90;;;;;;4925878;29;20036;-74
2022/12/08 07:13:38;;;;;;;23.23;11.30;;;-1.10;99.90;;;;;;4925599;29;20103;-75
2022/12/08 07:16:08;;;;;;;23.88;11.38;;;-1.10;99.90;;;;;;4908539;29;20136;-74
2022/12/08 07:18:35;;;;;;;23.23;11.20;;;-1.10;99.90;;;;;;4925925;29;20274;-74
2022/12/08 07:21:09;;;;;;;22.88;10.68;;;-1.00;99.90;;;;;;4908630;29;20202;-74
2022/12/08 07:23:36;;;;;;;19.75;10.30;;;-1.00;99.90;;;;;;4925774;29;20028;-75
2022/12/08 07:26:03;;;;;;;20.95;10.30;;;-1.00;99.90;;;;;;4925595;29;20039;-75
2022/12/08 07:28:31;;;;;;;20.63;9.85;;;-1.00;99.90;;;;;;4925570;29;20079;-75
2022/12/08 07:30:57;;;;;;;19.85;9.95;;;-0.90;99.90;;;;;;4924977;29;20092;-75
2022/12/08 07:33:23;;;;;;;21.95;10.52;;;-0.90;99.90;;;;;;4908737;29;20087;-75
2022/12/08 07:36:01;;;;;;;17.70;9.38;;;-0.80;99.90;;;;;;4904268;29;20016;-75
2022/12/08 07:38:27;;;;;;;18.02;9.70;;;-0.80;99.90;;;;;;4905962;29;20028;-75
2022/12/08 07:40:56;;;;;;;17.58;9.10;;;-0.80;99.90;;;;;;4907825;29;20494;-74
2022/12/08 07:43:23;;;;;;;21.60;9.73;;;-0.80;99.90;;;;;;4924912;29;20087;-75
2022/12/08 07:45:49;;;;;;;22.33;10.00;;;-0.80;99.90;;;;;;4939986;29;20349;-74
2022/12/08 07:48:16;;;;;;;26.73;11.15;;;-0.70;99.90;;;;;;4926097;29;20028;-74
2022/12/08 07:50:42;;;;;;;24.60;11.23;;;-0.60;99.90;;;;;;4908614;29;20040;-74
2022/12/08 07:53:08;;;;;;;23.83;10.52;;;-0.50;99.90;;;;;;4924975;29;20047;-74
2022/12/08 07:55:41;;;;;;;21.05;9.80;;;-0.50;99.90;;;;;;4925180;29;20031;-75
2022/12/08 07:58:07;;;;;;;23.98;10.55;;;-0.40;99.90;;;;;;4911021;29;20198;-74
2022/12/08 08:00:37;;;;;;;23.08;9.85;;;-0.30;99.90;;;;;;4928829;29;20046;-74
2022/12/08 08:03:04;;;;;;;20.13;9.52;;;-0.30;99.90;;;;;;4928210;29;20115;-74
2022/12/08 08:05:30;;;;;;;19.55;10.13;;;-0.20;99.90;;;;;;4928274;29;20028;-74
2022/12/08 08:07:56;;;;;;;19.48;9.93;;;-0.20;99.90;;;;;;4910091;29;20084;-74
2022/12/08 08:10:22;;;;;;;22.58;10.73;;;-0.10;99.90;;;;;;4927858;29;20143;-74
2022/12/08 08:12:49;;;;;;;20.80;9.93;;;-0.20;99.90;;;;;;4927647;29;20028;-74
2022/12/08 08:15:16;;;;;;;19.80;11.57;;;-0.10;99.90;;;;;;4928050;29;20199;-74
2022/12/08 08:17:41;;;;;;;19.33;10.73;;;-0.10;99.90;;;;;;4927698;29;20032;-74
2022/12/08 08:20:08;;;;;;;18.75;11.02;;;-0.10;99.90;;;;;;4928519;29;20318;-74
2022/12/08 08:22:34;;;;;;;21.15;11.57;;;-0.10;99.90;;;;;;4934103;29;20036;-75
2022/12/08 08:25:00;;;;;;;19.77;10.32;;;0.00;99.90;;;;;;4932844;29;20039;-73
2022/12/08 08:27:25;;;;;;;21.27;10.95;;;0.00;99.90;;;;;;4916760;29;20024;-79
2022/12/08 08:29:52;;;;;;;20.25;11.38;;;0.10;99.90;;;;;;4911185;29;20031;-75
2022/12/08 08:32:18;;;;;;;22.13;11.45;;;0.10;99.90;;;;;;4895442;29;20043;-74
2022/12/08 08:34:44;;;;;;;18.67;10.52;;;0.10;99.90;;;;;;4928468;29;20032;-76
2022/12/08 08:37:09;;;;;;;20.67;10.77;;;0.20;99.90;;;;;;4927817;29;20042;-75
2022/12/08 08:39:35;;;;;;;21.58;10.82;;;0.20;99.90;;;;;;4927519;29;20293;-74
2022/12/08 08:42:01;;;;;;;22.00;10.57;;;0.20;99.90;;;;;;4909702;29;20031;-79
2022/12/08 08:44:27;;;;;;;21.52;10.85;;;0.30;99.90;;;;;;4927418;29;20142;-72
2022/12/08 08:46:52;;;;;;;18.67;10.32;;;0.30;99.90;;;;;;4926531;29;20031;-72
2022/12/08 08:49:18;;;;;;;19.13;10.07;;;0.30;99.90;;;;;;4927009;29;20103;-71
2022/12/08 08:51:45;;;;;;;20.88;11.05;;;0.40;99.90;;;;;;4927622;29;20063;-71
2022/12/08 08:54:10;;;;;;;18.80;10.52;;;0.40;99.90;;;;;;4927261;29;20032;-71
2022/12/08 08:56:36;;;;;;;22.20;11.23;;;0.50;99.90;;;;;;4927838;29;20238;-71
2022/12/08 08:59:02;;;;;;;20.17;10.32;;;0.60;99.90;;;;;;4928606;29;20031;-71
2022/12/08 09:01:28;;;;;;;22.45;11.25;;;0.70;99.90;;;;;;4945188;29;20087;-72
2022/12/08 09:03:55;;;;;;;18.38;10.43;;;0.70;99.90;;;;;;4945449;29;20038;-70
2022/12/08 09:06:21;;;;;;;22.48;11.38;;;0.80;99.90;;;;;;4945515;29;20055;-71
2022/12/08 09:08:47;;;;;;;22.20;10.82;;;0.80;99.90;;;;;;4944380;29;20184;-71
2022/12/08 09:11:13;;;;;;;21.48;10.68;;;0.80;99.90;;;;;;4944657;29;20063;-71
2022/12/08 09:13:39;;;;;;;22.55;11.57;;;0.90;99.90;;;;;;4945132;29;20070;-71
2022/12/08 09:16:07;;;;;;;18.67;10.95;;;0.90;99.90;;;;;;4944834;29;20028;-71
2022/12/08 09:18:32;;;;;;;20.83;10.97;;;1.00;99.90;;;;;;4945713;29;20027;-71
2022/12/08 09:21:14;;;;;;;19.33;10.43;;;1.00;99.90;;;;;;4944924;29;20454;-71
2022/12/08 09:23:40;;;;;;;20.77;10.73;;;1.10;99.90;;;;;;4945136;29;20039;-71
2022/12/08 09:26:06;;;;;;;19.23;10.65;;;1.20;99.90;;;;;;4944891;29;20020;-71
2022/12/08 09:28:32;;;;;;;19.92;11.10;;;1.30;99.90;;;;;;4945294;29;20034;-72
2022/12/08 09:30:58;;;;;;;18.75;11.15;;;1.40;99.90;;;;;;4944663;29;20028;-72
2022/12/08 09:33:23;;;;;;;16.95;10.10;;;1.50;99.90;;;;;;4944892;29;20042;-73
2022/12/08 09:35:49;;;;;;;19.90;9.82;;;1.60;99.90;;;;;;4928299;29;20107;-72
2022/12/08 09:38:15;;;;;;;20.85;10.65;;;1.60;99.90;;;;;;4925766;29;20032;-73
2022/12/08 09:40:52;;;;;;;20.02;9.75;;;1.60;99.90;;;;;;4925205;29;20036;-72
2022/12/08 09:43:46;;;;;;;17.20;9.63;;;1.70;99.90;;;;;;4925960;29;20309;-72
2022/12/08 09:46:16;;;;;;;19.35;10.02;;;1.80;99.90;;;;;;4925326;29;20040;-72
2022/12/08 09:48:54;;;;;;;21.38;10.38;;;1.90;99.90;;;;;;4925726;29;20040;-73
2022/12/08 09:51:24;;;;;;;17.80;9.68;;;1.90;99.90;;;;;;4925849;29;20092;-72
2022/12/08 09:53:57;;;;;;;15.60;8.98;;;2.10;99.90;;;;;;4925546;29;20073;-72
2022/12/08 09:56:25;;;;;;;20.40;8.82;;;2.10;99.90;;;;;;4925529;29;20023;-72
2022/12/08 09:58:54;;;;;;;17.65;9.00;;;2.20;99.90;;;;;;4943977;29;20043;-73
2022/12/08 10:01:21;;;;;;;;;;;2.10;99.90;;;;;;4945198;29;20082;-73
2022/12/08 10:03:46;;;;;;;14.77;8.93;;;2.20;99.90;;;;;;4944573;29;19919;-73
2022/12/08 10:06:43;;;;;;;15.68;9.38;;;2.30;99.90;;;;;;4944414;29;20102;-73
2022/12/08 10:09:37;;;;;;;18.73;9.48;;;2.40;99.90;;;;;;4944226;29;20035;-71
2022/12/08 10:12:55;;;;;;;15.90;8.73;;;2.50;99.90;;;;;;4943989;29;20036;-74
2022/12/08 10:15:48;;;;;;;17.95;8.85;;;2.60;99.90;;;;;;4836698;29;20052;-75
2022/12/08 10:18:27;;;;;;;16.23;8.65;;;2.70;99.90;;;;;;4942274;29;20316;-76
2022/12/08 10:21:09;;;;;;;14.60;8.45;;;2.70;99.90;;;;;;4944014;29;20274;-77
2022/12/08 10:23:38;;;;;;;12.98;7.68;;;2.80;99.90;;;;;;4944709;29;20031;-75
2022/12/08 10:26:06;;;;;;;15.30;8.55;;;2.90;99.90;;;;;;4944041;29;20194;-73
2022/12/08 10:28:33;;;;;;;13.57;7.75;;;3.00;99.90;;;;;;4944410;29;20043;-74
2022/12/08 10:30:59;;;;;;;19.70;8.75;;;3.20;99.90;;;;;;4943847;29;20199;-75
2022/12/08 10:33:27;;;;;;;20.73;9.60;;;3.40;99.90;;;;;;4944551;29;20141;-71
2022/12/08 10:35:57;;;;;;;16.45;7.85;;;3.60;99.90;;;;;;4926294;29;20036;-74
2022/12/08 10:38:33;;;;;;;15.45;7.45;;;3.80;99.90;;;;;;4924088;29;20225;-73
2022/12/08 10:41:02;;;;;;;12.32;6.88;;;4.10;99.90;;;;;;4924682;29;20079;-75
2022/12/08 10:43:28;;;;;;;10.73;6.57;;;4.40;99.90;;;;;;4925280;29;20032;-74
2022/12/08 10:45:54;;;;;;;13.65;7.28;;;4.90;99.90;;;;;;4925178;29;20201;-73
2022/12/08 10:48:26;;;;;;;10.70;6.20;;;5.50;99.90;;;;;;4925370;29;20298;-77
2022/12/08 10:50:53;;;;;;;9.27;5.35;;;6.10;99.90;;;;;;4925491;29;20051;-76
2022/12/08 10:53:26;;;;;;;7.70;4.22;;;6.80;99.90;;;;;;4908264;29;20040;-75
2022/12/08 10:56:01;;;;;;;6.18;4.13;;;7.30;99.90;;;;;;4925147;29;20318;-74
2022/12/08 10:58:27;;;;;;;6.25;4.20;;;7.50;99.80;;;;;;4908494;29;20043;-76
2022/12/08 11:00:56;;;;;;;6.80;4.30;;;8.20;99.10;;;;;;4925032;29;20039;-75
2022/12/08 11:03:28;;;;;;;6.10;3.80;;;8.70;97.10;;;;;;4924844;29;20047;-75
2022/12/08 11:05:59;;;;;;;6.05;3.80;;;8.80;96.90;;;;;;4925076;29;20028;-75
2022/12/08 11:08:27;;;;;;;5.80;3.53;;;9.20;95.70;;;;;;4907496;29;20325;-74
2022/12/08 11:10:52;;;;;;;6.00;4.15;;;9.50;94.80;;;;;;4907409;29;20266;-76
2022/12/08 11:13:28;;;;;;;5.63;4.00;;;9.70;94.20;;;;;;4907244;29;20149;-76
2022/12/08 11:15:56;;;;;;;5.70;3.63;;;10.00;93.60;;;;;;4924393;29;20233;-77
2022/12/08 11:18:38;;;;;;;5.72;3.70;;;10.70;92.50;;;;;;4907499;29;20205;-75
2022/12/08 11:21:14;;;;;;;4.35;3.22;;;11.10;91.90;;;;;;4923702;29;20036;-75
2022/12/08 11:23:42;;;;;;;4.32;2.92;;;11.30;91.40;;;;;;4907332;29;20055;-75
2022/12/08 11:26:17;;;;;;;5.47;3.38;;;12.20;90.30;;;;;;4924124;29;20143;-76
2022/12/08 11:28:47;;;;;;;5.47;3.40;;;12.80;87.40;;;;;;4924075;29;20032;-75
2022/12/08 11:31:24;;;;;;;5.40;3.30;;;13.10;86.90;;;;;;4925398;29;20099;-75
2022/12/08 11:33:51;;;;;;;6.22;3.30;;;12.70;86.40;;;;;;4927994;29;20044;-76
2022/12/08 11:36:21;;;;;;;6.60;3.47;;;12.80;84.50;;;;;;4927580;29;20076;-76
2022/12/08 11:38:50;;;;;;;5.82;3.40;;;12.50;85.70;;;;;;4927706;29;20044;-75
2022/12/08 11:41:21;;;;;;;4.43;3.05;;;12.70;85.00;;;;;;4927823;29;20302;-77
2022/12/08 11:44:00;;;;;;;5.25;3.13;;;12.70;83.90;;;;;;4910754;29;20046;-75
2022/12/08 11:46:39;;;;;;;5.30;2.90;;;12.90;83.10;;;;;;4927900;29;20032;-75
2022/12/08 11:49:13;;;;;;;4.35;2.90;;;13.70;80.90;;;;;;4910591;29;20040;-76
2022/12/08 11:52:04;;;;;;;3.88;2.85;;;14.30;79.60;;;;;;4910733;29;20044;-74
2022/12/08 11:54:40;;;;;;;3.90;2.80;;;14.50;77.60;;;;;;4927698;29;20084;-75
2022/12/08 11:57:19;;;;;;;4.40;3.08;;;12.70;80.00;;;;;;4932156;29;20028;-76
2022/12/08 11:59:49;;;;;;;6.28;3.25;;;11.60;83.70;;;;;;4946753;29;20348;-72
2022/12/08 12:02:28;;;;;;;5.75;3.05;;;11.00;86.80;;;;;;4945760;29;20098;-71
2022/12/08 12:05:01;;;;;;;5.75;3.10;;;9.80;88.50;;;;;;4929442;29;20051;-72
2022/12/08 12:07:42;;;;;;;5.20;3.28;;;9.90;89.80;;;;;;4945992;29;20189;-72
2022/12/08 12:10:27;;;;;;;4.00;2.55;;;9.70;89.20;;;;;;4928718;29;20083;-72
2022/12/08 12:13:10;;;;;;;3.60;2.25;;;9.10;90.30;;;;;;4945871;29;20103;-74
2022/12/08 12:16:08;;;;;;;5.00;2.90;;;8.80;90.10;;;;;;4946293;29;20034;-74
2022/12/08 12:18:48;;;;;;;4.28;2.50;;;9.50;89.80;;;;;;4946123;29;20070;-74
2022/12/08 12:21:29;;;;;;;5.00;2.92;;;8.80;90.00;;;;;;4945629;29;20039;-73
2022/12/08 12:23:59;;;;;;;4.55;2.70;;;8.20;92.00;;;;;;4945844;29;20039;-73
2022/12/08 12:26:28;;;;;;;8.40;3.17;;;7.90;91.70;;;;;;4945870;29;20028;-74
2022/12/08 12:29:01;;;;;;;4.57;2.42;;;7.70;91.90;;;;;;4909178;29;20286;-73
2022/12/08 12:31:41;;;;;;;3.97;2.40;;;7.50;92.10;;;;;;4926358;29;20036;-74
2022/12/08 12:34:09;;;;;;;5.15;2.95;;;7.70;92.50;;;;;;4926196;29;20056;-74
2022/12/08 12:36:57;;;;;;;6.15;2.63;;;7.70;92.20;;;;;;4926263;29;20032;-74
2022/12/08 12:39:29;;;;;;;5.10;2.70;;;7.40;92.50;;;;;;4926358;29;20099;-74
2022/12/08 12:41:59;;;;;;;5.80;3.22;;;7.30;93.00;;;;;;4926763;29;20080;-72
2022/12/08 12:44:27;;;;;;;5.95;2.88;;;7.10;93.10;;;;;;4927202;29;20144;-75
2022/12/08 12:46:53;;;;;;;;;;;7.10;93.20;;;;;;4927388;29;20329;-74
2022/12/08 12:49:37;;;;;;;4.13;2.30;;;7.20;93.30;;;;;;4926893;29;19974;-75
2022/12/08 12:52:32;;;;;;;4.05;2.25;;;7.00;93.30;;;;;;4926922;29;20035;-74
2022/12/08 12:54:58;;;;;;;4.28;2.47;;;7.10;93.30;;;;;;4926745;29;20035;-74
2022/12/08 12:57:36;;;;;;;3.95;2.45;;;7.00;93.20;;;;;;4933329;29;20119;-73
2022/12/08 13:00:02;;;;;;;5.32;2.88;;;7.10;94.10;;;;;;4945105;29;20047;-75
2022/12/08 13:02:32;;;;;;;5.72;2.35;;;7.10;93.90;;;;;;4930926;29;20040;-74
2022/12/08 13:05:18;;;;;;;5.95;2.40;;;7.10;93.40;;;;;;4927036;29;20039;-73
2022/12/08 13:07:54;;;;;;;4.95;2.55;;;7.00;93.60;;;;;;4909687;29;20032;-73
2022/12/08 13:10:38;;;;;;;4.70;2.78;;;7.10;93.40;;;;;;4925502;29;20032;-74
2022/12/08 13:13:17;;;;;;;4.93;2.67;;;7.20;93.50;;;;;;4940576;29;20128;-75
2022/12/08 13:15:49;;;;;;;4.70;2.50;;;7.20;94.20;;;;;;4926285;29;20046;-72
2022/12/08 13:18:30;;;;;;;6.32;3.08;;;7.10;93.30;;;;;;4925668;29;20314;-72
2022/12/08 13:21:09;;;;;;;6.88;2.78;;;7.00;93.70;;;;;;4925765;29;20060;-74
2022/12/08 13:23:43;;;;;;;6.28;3.17;;;6.80;93.60;;;;;;4925863;29;20046;-73
2022/12/08 13:26:23;;;;;;;5.78;3.08;;;6.70;94.10;;;;;;4908879;29;20342;-74
2022/12/08 13:28:59;;;;;;;5.20;3.20;;;6.50;94.10;;;;;;4925775;29;20325;-73
2022/12/08 13:31:38;;;;;;;6.82;3.05;;;6.40;94.20;;;;;;4925188;29;20127;-73
2022/12/08 13:34:15;;;;;;;4.38;2.53;;;6.20;94.60;;;;;;4925135;29;20108;-73
2022/12/08 13:37:01;;;;;;;6.22;3.15;;;6.10;95.00;;;;;;4925260;29;20051;-73
2022/12/08 13:39:38;;;;;;;6.28;3.35;;;5.90;95.10;;;;;;4886555;29;20377;-78
2022/12/08 13:42:32;;;;;;;5.15;3.08;;;5.90;95.70;;;;;;4925194;29;20048;-73
2022/12/08 13:45:03;;;;;;;7.15;3.58;;;5.70;95.70;;;;;;4925767;29;20068;-73
2022/12/08 13:48:20;;;;;;;5.82;3.47;;;5.60;95.50;;;;;;4925822;29;20047;-72
2022/12/08 13:51:13;;;;;;;5.70;3.30;;;5.60;95.60;;;;;;4921077;29;20060;-74
2022/12/08 13:53:41;;;;;;;8.32;3.95;;;5.50;96.00;;;;;;4916832;29;20123;-74
2022/12/08 13:56:10;;;;;;;5.70;3.45;;;5.50;96.10;;;;;;4925180;29;20036;-73
2022/12/08 13:58:37;;;;;;;6.93;3.60;;;5.50;96.00;;;;;;4941918;29;20046;-74
2022/12/08 14:01:18;;;;;;;5.22;3.20;;;5.50;96.70;;;;;;4927491;29;20055;-73
2022/12/08 14:03:47;;;;;;;6.35;3.35;;;5.50;96.30;;;;;;4934934;29;20052;-73
2022/12/08 14:06:27;;;;;;;6.05;3.13;;;5.50;96.40;;;;;;4923645;29;20036;-74
2022/12/08 14:08:57;;;;;;;6.47;3.55;;;5.40;96.20;;;;;;4925682;29;20040;-74
2022/12/08 14:11:34;;;;;;;10.95;6.38;;;5.40;96.30;;;;;;4927133;29;20024;-74
2022/12/08 14:14:07;;;;;;;7.57;4.00;;;5.30;96.40;;;;;;4925351;29;20059;-75
2022/12/08 14:16:42;;;;;;;6.00;3.85;;;5.10;96.50;;;;;;4925128;29;20032;-73
2022/12/08 14:19:17;;;;;;;7.95;3.80;;;5.10;96.90;;;;;;4924702;29;20028;-73
2022/12/08 14:21:52;;;;;;;5.95;3.15;;;5.10;96.80;;;;;;4925016;29;20036;-74
2022/12/08 14:24:18;;;;;;;5.15;2.95;;;5.00;96.90;;;;;;4924916;29;20095;-75
2022/12/08 14:26:46;;;;;;;5.30;2.95;;;5.00;97.00;;;;;;4907715;29;20032;-74
2022/12/08 14:29:42;;;;;;;6.25;3.15;;;5.00;97.30;;;;;;4924450;29;20112;-75
2022/12/08 14:32:26;;;;;;;6.07;3.22;;;5.00;97.60;;;;;;4924771;29;20214;-75
2022/12/08 14:35:07;;;;;;;5.75;3.10;;;5.00;97.20;;;;;;4924505;29;20044;-73
2022/12/08 14:37:36;;;;;;;5.68;3.00;;;5.00;97.40;;;;;;4924560;29;20152;-73
2022/12/08 14:40:18;;;;;;;5.38;3.28;;;5.00;97.50;;;;;;4907797;29;20039;-73
2022/12/08 14:43:03;;;;;;;6.80;3.20;;;5.00;97.50;;;;;;4924544;29;20281;-73
2022/12/08 14:45:29;;;;;;;6.22;2.92;;;4.90;97.60;;;;;;4924363;29;20115;-74
2022/12/08 14:47:54;;;;;;;5.30;2.58;;;4.90;97.80;;;;;;4924912;29;20214;-75
2022/12/08 14:50:38;;;;;;;5.32;2.85;;;4.90;97.30;;;;;;4907462;29;20039;-74
2022/12/08 14:53:11;;;;;;;6.03;3.00;;;4.90;97.30;;;;;;4924875;29;20043;-73
2022/12/08 14:55:37;;;;;;;6.00;2.92;;;4.80;97.30;;;;;;4924269;29;20198;-73
2022/12/08 14:58:03;;;;;;;4.93;2.78;;;4.80;97.20;;;;;;4936323;29;20040;-73
2022/12/08 15:00:29;;;;;;;5.22;2.70;;;4.70;97.30;;;;;;4942769;29;20106;-74
2022/12/08 15:02:56;;;;;;;6.25;3.20;;;4.70;97.20;;;;;;4902549;29;20202;-76
2022/12/08 15:05:28;;;;;;;6.57;3.03;;;4.70;97.50;;;;;;4906718;29;20187;-76
2022/12/08 15:08:02;;;;;;;5.35;2.90;;;4.70;97.30;;;;;;4908299;29;20066;-77
2022/12/08 15:10:36;;;;;;;5.65;3.25;;;4.60;97.60;;;;;;4876569;29;20330;-75
2022/12/08 15:13:08;;;;;;;6.90;3.92;;;4.60;97.40;;;;;;4909669;29;20024;-78
2022/12/08 15:15:54;;;;;;;7.78;3.60;;;4.60;97.30;;;;;;4909416;29;20025;-78
2022/12/08 15:18:35;;;;;;;6.70;3.40;;;4.60;97.90;;;;;;4908650;29;20048;-77
2022/12/08 15:21:04;;;;;;;8.15;4.30;;;4.60;98.00;;;;;;4908876;29;20040;-74
2022/12/08 15:23:55;;;;;;;6.82;3.90;;;4.60;97.80;;;;;;4908254;29;20044;-76
2022/12/08 15:26:42;;;;;;;6.18;3.53;;;4.50;97.70;;;;;;4893221;29;20228;-75
2022/12/08 15:29:28;;;;;;;5.47;3.20;;;4.50;97.90;;;;;;4892526;29;20037;-73
2022/12/08 15:31:57;;;;;;;5.25;3.00;;;4.40;98.10;;;;;;4904697;29;20037;-73
2022/12/08 15:34:23;;;;;;;8.68;3.38;;;4.40;98.20;;;;;;4889905;29;20047;-74
2022/12/08 15:36:53;;;;;;;7.15;3.40;;;4.30;98.20;;;;;;4890279;29;20032;-78
2022/12/08 15:39:36;;;;;;;7.25;3.60;;;4.30;98.30;;;;;;4889869;29;20066;-77
2022/12/08 15:42:05;;;;;;;5.72;3.40;;;4.30;98.40;;;;;;4890462;29;20069;-78
2022/12/08 15:44:31;;;;;;;6.28;3.60;;;4.20;98.30;;;;;;4904078;29;20040;-76
2022/12/08 15:46:58;;;;;;;7.65;3.53;;;4.30;98.50;;;;;;4890034;29;20044;-73
2022/12/08 15:49:24;;;;;;;6.15;3.63;;;4.20;98.60;;;;;;4889478;29;20033;-73
2022/12/08 15:51:51;;;;;;;9.02;3.90;;;4.20;98.40;;;;;;4890076;29;20051;-73
2022/12/08 15:54:17;;;;;;;6.53;3.72;;;4.20;98.70;;;;;;4889573;29;20176;-73
2022/12/08 15:56:53;;;;;;;7.45;3.90;;;4.20;98.70;;;;;;4890305;29;20040;-73
2022/12/08 15:59:21;;;;;;;10.07;4.65;;;4.20;98.90;;;;;;4889667;29;20112;-73
2022/12/08 16:01:47;;;;;;;8.43;4.80;;;4.20;99.10;;;;;;4878457;29;20602;-73
2022/12/08 16:04:16;;;;;;;11.85;5.28;;;4.20;99.40;;;;;;4926874;29;20083;-74
2022/12/08 16:06:44;;;;;;;12.68;6.28;;;4.20;99.00;;;;;;4927529;29;20043;-74
2022/12/08 16:09:22;;;;;;;11.20;6.40;;;4.20;98.90;;;;;;4927743;29;20092;-74
2022/12/08 16:14:32;;;;;;;10.50;6.00;;;4.10;99.10;;;;;;4926805;29;20055;-73
2022/12/08 16:16:58;;;;;;;9.18;5.43;;;4.00;99.50;;;;;;4926574;29;20099;-72
2022/12/08 16:19:24;;;;;;;14.85;6.38;;;4.00;99.30;;;;;;4926856;29;20040;-73
2022/12/08 16:21:50;;;;;;;60.95;37.90;;;4.00;99.40;;;;;;4926972;29;20187;-73
2022/12/08 16:24:16;;;;;;;24.20;16.67;;;3.90;99.20;;;;;;4909564;29;20032;-72
2022/12/08 16:26:41;;;;;;;10.93;6.53;;;4.00;99.30;;;;;;4927000;29;20091;-72
2022/12/08 16:29:18;;;;;;;8.48;4.95;;;4.00;99.40;;;;;;4910803;29;20028;-73
2022/12/08 16:31:44;;;;;;;17.00;12.20;;;4.00;99.60;;;;;;4907881;29;20032;-74
2022/12/08 16:34:09;;;;;;;9.82;5.00;;;3.90;99.10;;;;;;4908026;29;20075;-76
2022/12/08 16:36:35;;;;;;;19.33;12.23;;;3.90;99.20;;;;;;4907872;29;20036;-76
2022/12/08 16:39:12;;;;;;;19.17;11.73;;;3.90;99.20;;;;;;4908577;29;20080;-79
2022/12/08 16:44:42;;;;;;;25.60;15.23;;;3.80;99.40;;;;;;4876183;29;20055;-76
2022/12/08 16:47:15;;;;;;;20.95;11.63;;;3.80;99.60;;;;;;4891166;29;20091;-78
2022/12/08 16:49:41;;;;;;;18.65;9.80;;;3.80;99.60;;;;;;4875678;29;20048;-77
2022/12/08 16:52:16;;;;;;;9.43;5.15;;;3.90;99.80;;;;;;4891400;29;20028;-79
2022/12/08 16:54:52;;;;;;;14.57;6.15;;;3.80;99.60;;;;;;4891290;29;20040;-80
2022/12/08 16:57:26;;;;;;;12.57;5.53;;;3.80;99.40;;;;;;4904925;29;20242;-75
2022/12/08 16:59:51;;;;;;;19.38;8.98;;;3.70;99.50;;;;;;4945346;29;20139;-75
2022/12/08 17:02:17;;;;;;;18.45;10.00;;;3.70;99.50;;;;;;4944411;29;20050;-76
2022/12/08 17:04:43;;;;;;;11.07;6.32;;;3.70;99.60;;;;;;4945844;29;20042;-77
2022/12/08 17:07:16;;;;;;;10.82;5.60;;;3.70;99.70;;;;;;4913493;29;20049;-78
2022/12/08 17:09:42;;;;;;;8.30;3.95;;;3.70;99.80;;;;;;4913366;29;20228;-76
2022/12/08 17:12:09;;;;;;;7.85;4.15;;;3.70;99.80;;;;;;4928997;29;20093;-75
2022/12/08 17:14:35;;;;;;;6.60;4.00;;;3.70;99.90;;;;;;4928922;29;20296;-76
2022/12/08 17:17:01;;;;;;;9.32;5.20;;;3.70;99.90;;;;;;4930107;29;20019;-76
2022/12/08 17:19:27;;;;;;;9.52;6.10;;;3.70;99.90;;;;;;4930151;29;20036;-77
2022/12/08 17:21:53;;;;;;;13.48;7.53;;;3.70;99.90;;;;;;4945870;29;20059;-77
2022/12/08 17:24:20;;;;;;;11.15;6.20;;;3.70;99.90;;;;;;4929837;29;20271;-77
2022/12/08 17:26:46;;;;;;;12.02;7.25;;;3.70;99.90;;;;;;4946449;29;20039;-76
2022/12/08 17:29:14;;;;;;;12.77;7.53;;;3.80;99.90;;;;;;4921949;29;20043;-82
2022/12/08 17:31:40;;;;;;;11.02;5.75;;;3.80;99.90;;;;;;4927017;23;20048;-79
2022/12/08 17:34:09;;;;;;;9.88;5.50;;;3.80;99.90;;;;;;4863717;29;20053;-76
2022/12/08 17:36:35;;;;;;;12.63;6.10;;;3.80;99.90;;;;;;4893413;29;20029;-76
2022/12/08 17:39:06;;;;;;;13.80;5.72;;;3.80;99.90;;;;;;4889733;29;20029;-78
2022/12/08 17:41:33;;;;;;;10.05;5.35;;;3.70;99.90;;;;;;4872359;29;20092;-79
2022/12/08 17:44:02;;;;;;;11.73;5.30;;;3.70;99.90;;;;;;4888330;29;20108;-78
2022/12/08 17:46:28;;;;;;;12.32;6.30;;;3.70;99.90;;;;;;4871306;29;20021;-77
2022/12/08 17:48:54;;;;;;;9.80;5.28;;;3.70;99.90;;;;;;4856550;29;20097;-78
2022/12/08 17:51:19;;;;;;;11.95;5.47;;;3.80;99.90;;;;;;4888082;29;20037;-76
2022/12/08 17:53:45;;;;;;;12.15;5.65;;;3.80;99.90;;;;;;4888731;29;20037;-76
2022/12/08 17:56:17;;;;;;;10.45;6.00;;;3.80;99.90;;;;;;4888455;29;20033;-76
2022/12/08 17:58:44;;;;;;;13.00;6.45;;;3.80;99.90;;;;;;4868683;29;20033;-77
2022/12/08 18:01:11;;;;;;;13.60;4.78;;;3.80;99.90;;;;;;4869403;29;20044;-77
2022/12/08 18:03:37;;;;;;;8.38;4.07;;;3.70;99.20;;;;;;4869137;29;20033;-76
2022/12/08 18:06:08;;;;;;;6.68;3.78;;;3.70;99.10;;;;;;4849005;29;20236;-76
2022/12/08 18:08:34;;;;;;;9.27;4.78;;;3.60;99.20;;;;;;4848526;29;20053;-77
2022/12/08 18:11:00;;;;;;;7.88;4.55;;;3.60;99.50;;;;;;4848859;29;20072;-73
2022/12/08 18:13:26;;;;;;;8.60;4.65;;;3.70;99.60;;;;;;4848462;29;20038;-76
2022/12/08 18:15:52;;;;;;;8.43;4.97;;;3.60;99.70;;;;;;4848755;29;20069;-76
2022/12/08 18:18:18;;;;;;;7.05;3.85;;;3.60;99.80;;;;;;4848945;29;20038;-75
2022/12/08 18:20:45;;;;;;;6.75;4.13;;;3.60;99.70;;;;;;4833503;29;20049;-76
2022/12/08 18:23:12;;;;;;;7.55;3.75;;;3.60;99.70;;;;;;4832521;29;20101;-76
2022/12/08 18:25:38;;;;;;;6.95;3.85;;;3.50;99.20;;;;;;4832718;29;20033;-75
2022/12/08 18:28:04;;;;;;;5.53;3.53;;;3.50;99.60;;;;;;4848358;29;20230;-75
2022/12/08 18:30:29;;;;;;;7.90;4.10;;;3.50;99.20;;;;;;4848083;29;20159;-75
2022/12/08 18:32:55;;;;;;;10.45;5.60;;;3.50;99.30;;;;;;4857835;29;20145;-75
2022/12/08 18:35:25;;;;;;;7.25;3.97;;;3.50;99.40;;;;;;4850892;29;20029;-75
2022/12/08 18:37:51;;;;;;;7.85;3.78;;;3.40;99.70;;;;;;4866885;29;20037;-75
2022/12/08 18:40:17;;;;;;;8.07;4.05;;;3.40;99.90;;;;;;4866803;29;20080;-74
2022/12/08 18:42:43;;;;;;;7.90;4.82;;;3.40;99.90;;;;;;4870041;29;20056;-74
2022/12/08 18:45:10;;;;;;;8.52;4.18;;;3.30;99.70;;;;;;4887514;29;20112;-72
2022/12/08 18:47:38;;;;;;;10.25;5.88;;;3.30;99.90;;;;;;4870322;29;20044;-74
2022/12/08 18:50:06;;;;;;;11.48;7.32;;;3.20;99.90;;;;;;4887218;29;20104;-74
2022/12/08 18:52:33;;;;;;;26.70;15.60;;;3.10;99.90;;;;;;4870481;29;20033;-72
2022/12/08 18:55:00;;;;;;;16.80;10.15;;;3.00;99.90;;;;;;4887479;29;20056;-75
2022/12/08 18:57:26;;;;;;;13.40;8.10;;;3.00;99.90;;;;;;4886908;29;20033;-73
2022/12/08 18:59:52;;;;;;;9.85;5.20;;;2.90;99.90;;;;;;4887236;29;20053;-73
2022/12/08 19:02:18;;;;;;;10.35;6.50;;;2.90;99.90;;;;;;4887372;29;20286;-73
2022/12/08 19:04:44;;;;;;;10.98;5.05;;;2.80;99.90;;;;;;4886751;29;20330;-72
2022/12/08 19:07:11;;;;;;;13.80;7.78;;;2.70;99.90;;;;;;4887311;29;20102;-73
2022/12/08 19:09:37;;;;;;;9.10;5.30;;;2.70;99.90;;;;;;4886517;29;20071;-74
2022/12/08 19:12:04;;;;;;;11.38;7.18;;;2.60;99.90;;;;;;4886980;29;20085;-73